CYDF/YDF METAR and TAF weather

Enter ICAO airport designator
Station Type Date Time Source
CYDF METAR 2019/06/17 06:00 UTC NOAA

CYDF 170600Z 04003KT 15SM OVC018 10/09 A2988 RMK SC8 SLP119


Station Type Date Time Source
CYDF Decoded METAR 2019/06/17 06:00 UTC NOAA

Deer Lake, Nfld., Canada (CYDF) 49-13N 057-24W 22M
Jun 17, 2019 - 02:00 AM EDT / 2019.06.17 0600 UTC
Wind: from the NE (040 degrees) at 3 MPH (3 KT):0
Visibility: 15 mile(s):0
Sky conditions: overcast
Temperature: 50 F (10 C)
Dew Point: 48 F (9 C)
Relative Humidity: 93%
Pressure (altimeter): 29.88 in. Hg (1011 hPa)
ob: CYDF 170600Z 04003KT 15SM OVC018 10/09 A2988 RMK SC8 SLP119
cycle: 6

Station Type Date Time Source
CYDF TAF 2019/06/17 02:39 UTC NOAA

TAF CYDF 170138Z 1702/1714 VRB03KT P6SM BKN025
TEMPO 1702/1704 BKN020
FM170400 VRB03KT P6SM FEW005 OVC020
TEMPO 1706/1712 3SM BR OVC005
FM171200 08005KT 3SM BR OVC008
TEMPO 1712/1714 P6SM NSW OVC015
RMK NXT FCST BY 170800Z

Example: see airport list